createdAt,value
2022-10-05T00:01:34.512Z,7.00
2022-10-05T00:04:28.263Z,7.01
2022-10-05T00:07:02.365Z,7.03
2022-10-05T00:09:33.313Z,7.01
2022-10-05T00:12:20.376Z,7.01
2022-10-05T00:14:53.491Z,7.00
2022-10-05T00:17:23.443Z,7.00
2022-10-05T00:19:54.197Z,6.98
2022-10-05T00:22:30.086Z,6.98
2022-10-05T00:25:01.477Z,6.98
2022-10-05T00:27:37.559Z,6.98
2022-10-05T00:30:27.090Z,7.00
2022-10-05T00:32:59.450Z,6.95
2022-10-05T00:35:29.552Z,6.89
2022-10-05T00:37:57.799Z,6.88
2022-10-05T00:40:50.748Z,6.89
2022-10-05T00:43:52.466Z,6.90
2022-10-05T00:46:30.560Z,6.91
2022-10-05T00:49:27.285Z,6.91
2022-10-05T00:52:29.607Z,6.90
2022-10-05T00:55:32.985Z,6.86
2022-10-05T00:58:19.307Z,6.87
2022-10-05T01:01:25.257Z,6.86
2022-10-05T01:04:40.733Z,6.82
2022-10-05T01:07:35.325Z,6.79
2022-10-05T01:10:24.925Z,6.77
2022-10-05T01:13:04.348Z,6.76
2022-10-05T01:15:54.621Z,6.74
2022-10-05T01:18:48.566Z,6.75
2022-10-05T01:21:28.494Z,6.71
2022-10-05T01:24:29.159Z,6.68
2022-10-05T01:28:01.836Z,6.65
2022-10-05T01:30:43.352Z,6.65
2022-10-05T01:33:48.092Z,6.65
2022-10-05T01:36:51.563Z,6.65
2022-10-05T01:39:34.981Z,6.66
2022-10-05T01:42:23.960Z,6.65
2022-10-05T01:45:25.353Z,6.61
2022-10-05T01:48:13.623Z,6.59
2022-10-05T01:50:54.030Z,6.59
2022-10-05T01:53:49.206Z,6.57
2022-10-05T01:56:50.950Z,6.53
2022-10-05T01:59:27.913Z,6.52
2022-10-05T02:02:09.628Z,6.47
2022-10-05T02:05:04.672Z,6.41
2022-10-05T02:07:46.095Z,6.37
2022-10-05T02:10:29.139Z,6.32
2022-10-05T02:13:38.496Z,6.28
2022-10-05T02:16:16.962Z,6.18
2022-10-05T02:19:08.483Z,6.11
2022-10-05T02:21:38.550Z,6.01
2022-10-05T02:24:20.609Z,5.93
2022-10-05T02:26:52.532Z,5.85
2022-10-05T02:29:26.381Z,5.78
2022-10-05T02:32:02.961Z,5.71
2022-10-05T02:34:40.719Z,5.65
2022-10-05T02:37:42.588Z,5.59
2022-10-05T02:40:44.701Z,5.51
2022-10-05T02:43:31.016Z,5.46
2022-10-05T02:46:37.949Z,5.44
2022-10-05T02:49:34.424Z,5.40
2022-10-05T02:52:45.279Z,5.38
2022-10-05T02:55:26.564Z,5.34
2022-10-05T02:58:23.829Z,5.29
2022-10-05T03:01:49.388Z,5.24
2022-10-05T03:04:38.799Z,5.19
2022-10-05T03:07:46.325Z,5.13
2022-10-05T03:10:37.234Z,5.09
2022-10-05T03:13:54.659Z,5.03
2022-10-05T03:17:02.915Z,4.97
2022-10-05T03:20:14.601Z,4.94
2022-10-05T03:23:05.004Z,4.90
2022-10-05T03:25:54.227Z,4.84
2022-10-05T03:28:45.850Z,4.80
2022-10-05T03:31:38.253Z,4.74
2022-10-05T03:34:53.963Z,4.70
2022-10-05T03:37:39.129Z,4.67
2022-10-05T03:40:22.187Z,4.66
2022-10-05T03:43:02.485Z,4.67
2022-10-05T03:45:46.929Z,4.65
2022-10-05T03:48:28.889Z,4.63
2022-10-05T03:51:24.832Z,4.59
2022-10-05T03:54:30.997Z,4.58
2022-10-05T03:57:10.545Z,4.58
2022-10-05T04:00:16.069Z,4.57
2022-10-05T04:03:08.076Z,4.54
2022-10-05T04:05:47.214Z,4.51
2022-10-05T04:08:43.029Z,4.51
2022-10-05T04:11:42.458Z,4.51
2022-10-05T04:14:16.008Z,4.50
2022-10-05T04:16:49.639Z,4.47
2022-10-05T04:19:41.653Z,4.47
2022-10-05T04:22:32.112Z,4.48
2022-10-05T04:25:32.127Z,4.48
2022-10-05T04:28:35.166Z,4.49
2022-10-05T04:31:10.434Z,4.48
2022-10-05T04:33:38.609Z,4.47
2022-10-05T04:36:22.287Z,4.49
2022-10-05T04:38:59.506Z,4.50
2022-10-05T04:41:40.081Z,4.49
2022-10-05T04:44:23.577Z,4.55
2022-10-05T04:47:06.036Z,4.59
2022-10-05T04:49:52.974Z,4.57
2022-10-05T04:52:37.364Z,4.58
2022-10-05T04:55:52.340Z,4.59
2022-10-05T04:58:50.997Z,4.61
2022-10-05T05:01:25.082Z,4.63
2022-10-05T05:04:24.808Z,4.66
2022-10-05T05:07:37.698Z,4.70
2022-10-05T05:10:35.745Z,4.76
2022-10-05T05:13:50.200Z,4.83
2022-10-05T05:16:39.026Z,4.92
2022-10-05T05:19:38.984Z,5.01
2022-10-05T05:22:36.702Z,5.10
2022-10-05T05:25:52.313Z,5.23
2022-10-05T05:28:42.525Z,5.35
2022-10-05T05:31:28.507Z,5.44
2022-10-05T05:34:41.568Z,5.53
2022-10-05T05:37:39.113Z,5.63
2022-10-05T05:40:10.212Z,5.73
2022-10-05T05:43:23.652Z,5.82
2022-10-05T05:46:17.526Z,5.95
2022-10-05T05:48:47.506Z,6.08
2022-10-05T05:51:24.653Z,6.17
2022-10-05T05:54:18.114Z,6.28
2022-10-05T05:57:19.495Z,6.41
2022-10-05T06:00:38.698Z,6.54
2022-10-05T06:04:08.734Z,6.67
2022-10-05T06:06:43.193Z,6.79
2022-10-05T06:09:42.039Z,6.87
2022-10-05T06:12:28.425Z,6.96
2022-10-05T06:15:24.707Z,7.04
2022-10-05T06:18:00.187Z,7.15
2022-10-05T06:21:00.945Z,7.33
2022-10-05T06:23:48.984Z,7.55
2022-10-05T06:27:00.766Z,7.72
2022-10-05T06:30:07.327Z,7.89
2022-10-05T06:33:06.312Z,8.07
2022-10-05T06:35:55.513Z,8.24
2022-10-05T06:38:29.706Z,8.38
2022-10-05T06:41:13.038Z,8.51
2022-10-05T06:44:10.735Z,8.66
2022-10-05T06:47:23.327Z,8.84
2022-10-05T06:50:36.788Z,9.01
2022-10-05T06:54:10.917Z,9.18
2022-10-05T06:56:59.588Z,9.34
2022-10-05T07:00:04.057Z,9.47
2022-10-05T07:02:54.818Z,9.60
2022-10-05T07:06:02.280Z,9.75
2022-10-05T07:09:08.379Z,9.91
2022-10-05T07:12:03.852Z,10.03
2022-10-05T07:14:59.380Z,10.14
2022-10-05T07:18:09.552Z,10.23
2022-10-05T07:21:19.164Z,10.30
2022-10-05T07:24:42.549Z,10.37
2022-10-05T07:27:23.871Z,10.47
2022-10-05T07:30:08.019Z,10.57
2022-10-05T07:33:12.313Z,10.65
2022-10-05T07:36:50.862Z,10.68
2022-10-05T07:39:55.414Z,10.77
2022-10-05T07:42:51.738Z,10.85
2022-10-05T07:45:39.567Z,10.92
2022-10-05T07:48:33.163Z,10.96
2022-10-05T07:51:36.500Z,10.98
2022-10-05T07:54:17.009Z,11.03
2022-10-05T07:56:53.872Z,11.07
2022-10-05T07:59:35.740Z,11.13
2022-10-05T08:02:47.273Z,11.16
2022-10-05T08:05:28.485Z,11.21
2022-10-05T08:08:58.936Z,11.24
2022-10-05T08:12:25.487Z,11.30
2022-10-05T08:15:15.505Z,11.34
2022-10-05T08:18:05.916Z,11.38
2022-10-05T08:20:49.428Z,11.42
2022-10-05T08:23:50.779Z,11.46
2022-10-05T08:26:28.664Z,11.52
2022-10-05T08:29:13.943Z,11.56
2022-10-05T08:31:48.735Z,11.58
2022-10-05T08:34:26.000Z,11.61
2022-10-05T08:37:21.304Z,11.67
2022-10-05T08:40:00.813Z,11.75
2022-10-05T08:43:09.493Z,11.79
2022-10-05T08:46:01.280Z,11.80
2022-10-05T08:48:57.157Z,11.78
2022-10-05T08:51:37.542Z,11.79
2022-10-05T08:54:14.458Z,11.77
2022-10-05T08:57:38.996Z,11.74
2022-10-05T09:00:16.695Z,11.70
2022-10-05T09:03:45.707Z,11.67
2022-10-05T09:06:51.344Z,11.67
2022-10-05T09:09:49.971Z,11.67
2022-10-05T09:12:18.213Z,11.66
2022-10-05T09:15:01.510Z,11.64
2022-10-05T09:18:28.425Z,11.65
2022-10-05T09:21:14.806Z,11.66
2022-10-05T09:23:45.165Z,11.71
2022-10-05T09:26:45.638Z,11.77
2022-10-05T09:29:47.134Z,11.82
2022-10-05T09:33:06.207Z,11.90
2022-10-05T09:36:02.063Z,11.99
2022-10-05T09:39:09.503Z,12.08
2022-10-05T09:42:04.435Z,12.14
2022-10-05T09:45:03.465Z,12.18
2022-10-05T09:48:14.683Z,12.23
2022-10-05T09:51:02.483Z,12.31
2022-10-05T09:53:58.367Z,12.33
2022-10-05T09:57:18.920Z,12.34
2022-10-05T10:00:21.738Z,12.34
2022-10-05T10:03:45.852Z,12.36
2022-10-05T10:06:22.733Z,12.40
2022-10-05T10:09:35.174Z,12.43
2022-10-05T10:12:41.424Z,12.46
2022-10-05T10:15:50.162Z,12.47
2022-10-05T10:18:59.541Z,12.48
2022-10-05T10:22:14.664Z,12.52
2022-10-05T10:24:57.848Z,12.56
2022-10-05T10:27:59.131Z,12.62
2022-10-05T10:31:00.587Z,12.65
2022-10-05T10:33:52.617Z,12.66
2022-10-05T10:37:13.506Z,12.67
2022-10-05T10:40:43.060Z,12.71
2022-10-05T10:43:44.946Z,12.76
2022-10-05T10:47:05.956Z,12.81
2022-10-05T10:50:06.298Z,12.82
2022-10-05T10:53:21.304Z,12.91
2022-10-05T10:56:14.085Z,13.04
2022-10-05T10:58:54.048Z,13.13
2022-10-05T11:01:31.272Z,13.18
2022-10-05T11:04:14.024Z,13.25
2022-10-05T11:06:51.026Z,13.28
2022-10-05T11:09:34.682Z,13.33
2022-10-05T11:12:34.363Z,13.37
2022-10-05T11:15:51.656Z,13.39
2022-10-05T11:18:47.243Z,13.46
2022-10-05T11:21:31.840Z,13.50
2022-10-05T11:24:46.741Z,13.50
2022-10-05T11:27:26.487Z,13.55
2022-10-05T11:30:41.547Z,13.62
2022-10-05T11:34:03.349Z,13.62
2022-10-05T11:37:44.342Z,13.61
2022-10-05T11:40:36.978Z,13.59
2022-10-05T11:43:34.419Z,13.62
2022-10-05T11:46:24.703Z,13.63
2022-10-05T11:49:35.671Z,13.62
2022-10-05T11:52:26.352Z,13.61
2022-10-05T11:55:21.484Z,13.61
2022-10-05T11:58:07.626Z,13.62
2022-10-05T12:00:41.611Z,13.66
2022-10-05T12:03:52.003Z,13.68
2022-10-05T12:06:21.968Z,13.72
2022-10-05T12:09:18.237Z,13.73
2022-10-05T12:12:21.023Z,13.75
2022-10-05T12:15:17.468Z,13.78
2022-10-05T12:17:55.491Z,13.79
2022-10-05T12:20:38.344Z,13.83
2022-10-05T12:23:37.558Z,13.88
2022-10-05T12:26:14.998Z,13.97
2022-10-05T12:29:13.650Z,13.98
2022-10-05T12:32:08.771Z,14.00
2022-10-05T12:35:46.666Z,14.03
2022-10-05T12:38:37.263Z,14.05
2022-10-05T12:42:01.025Z,14.09
2022-10-05T12:44:55.618Z,14.14
2022-10-05T12:47:53.476Z,14.16
2022-10-05T12:50:38.367Z,14.18
2022-10-05T12:53:56.981Z,14.20
2022-10-05T12:56:46.892Z,14.22
2022-10-05T12:59:33.069Z,14.25
2022-10-05T13:02:44.467Z,14.29
2022-10-05T13:05:26.599Z,14.32
2022-10-05T13:08:09.534Z,14.34
2022-10-05T13:11:21.041Z,14.36
2022-10-05T13:14:13.972Z,14.39
2022-10-05T13:16:55.992Z,14.40
2022-10-05T13:19:44.591Z,14.42
2022-10-05T13:22:43.511Z,14.45
2022-10-05T13:25:14.343Z,14.47
2022-10-05T13:28:13.194Z,14.49
2022-10-05T13:30:51.896Z,14.53
2022-10-05T13:33:33.282Z,14.56
2022-10-05T13:36:15.334Z,14.57
2022-10-05T13:39:03.861Z,14.57
2022-10-05T13:42:15.696Z,14.57
2022-10-05T13:45:13.339Z,14.56
2022-10-05T13:47:53.020Z,14.58
2022-10-05T13:50:33.439Z,14.60
2022-10-05T13:53:29.714Z,14.60
2022-10-05T13:56:24.616Z,14.62
2022-10-05T13:59:36.422Z,14.62
2022-10-05T14:02:20.298Z,14.63
2022-10-05T14:04:57.635Z,14.62
2022-10-05T14:07:50.387Z,14.62
2022-10-05T14:10:43.652Z,14.62
2022-10-05T14:13:46.812Z,14.61
2022-10-05T14:16:24.004Z,14.60
2022-10-05T14:19:14.385Z,14.57
2022-10-05T14:22:03.156Z,14.55
2022-10-05T14:24:44.560Z,14.54
2022-10-05T14:27:33.312Z,14.53
2022-10-05T14:30:23.826Z,14.52
2022-10-05T14:33:03.902Z,14.49
2022-10-05T14:35:49.266Z,14.47
2022-10-05T14:38:29.943Z,14.43
2022-10-05T14:41:27.744Z,14.40
2022-10-05T14:44:06.113Z,14.35
2022-10-05T14:46:37.254Z,14.32
2022-10-05T14:49:37.488Z,14.29
2022-10-05T14:52:32.633Z,14.24
2022-10-05T14:56:01.557Z,14.22
2022-10-05T14:58:48.040Z,14.18
2022-10-05T15:01:34.019Z,14.16
2022-10-05T15:04:17.055Z,14.14
2022-10-05T15:07:04.200Z,14.12
2022-10-05T15:10:06.555Z,14.10
2022-10-05T15:12:46.934Z,14.09
2022-10-05T15:15:32.986Z,14.07
2022-10-05T15:18:15.056Z,14.04
2022-10-05T15:20:58.690Z,14.02
2022-10-05T15:23:41.166Z,14.00
2022-10-05T15:26:27.413Z,13.97
2022-10-05T15:29:17.792Z,13.95
2022-10-05T15:31:57.797Z,13.92
2022-10-05T15:34:45.102Z,13.90
2022-10-05T15:37:23.807Z,13.86
2022-10-05T15:40:08.495Z,13.80
2022-10-05T15:42:41.611Z,13.75
2022-10-05T15:45:19.609Z,13.70
2022-10-05T15:47:57.372Z,13.62
2022-10-05T15:50:37.733Z,13.57
2022-10-05T15:53:14.948Z,13.53
2022-10-05T15:56:19.530Z,13.48
2022-10-05T15:59:02.296Z,13.42
2022-10-05T16:01:33.953Z,13.37
2022-10-05T16:04:35.798Z,13.32
2022-10-05T16:07:28.525Z,13.26
2022-10-05T16:10:15.561Z,13.20
2022-10-05T16:13:02.488Z,13.17
2022-10-05T16:15:48.751Z,13.12
2022-10-05T16:18:41.444Z,13.08
2022-10-05T16:21:41.531Z,13.03
2022-10-05T16:24:28.937Z,12.98
2022-10-05T16:27:10.509Z,12.94
2022-10-05T16:30:03.191Z,12.90
2022-10-05T16:32:39.433Z,12.85
2022-10-05T16:35:29.315Z,12.80
2022-10-05T16:38:14.617Z,12.75
2022-10-05T16:41:13.174Z,12.72
2022-10-05T16:44:09.206Z,12.67
2022-10-05T16:47:25.105Z,12.62
2022-10-05T16:50:13.579Z,12.57
2022-10-05T16:52:46.980Z,12.53
2022-10-05T16:55:32.414Z,12.48
2022-10-05T16:58:05.006Z,12.43
2022-10-05T17:00:58.121Z,12.38
2022-10-05T17:04:03.475Z,12.33
2022-10-05T17:07:00.592Z,12.29
2022-10-05T17:10:14.651Z,12.22
2022-10-05T17:13:14.218Z,12.15
2022-10-05T17:16:15.068Z,12.10
2022-10-05T17:19:10.099Z,12.05
2022-10-05T17:22:00.610Z,12.00
2022-10-05T17:25:18.404Z,11.95
2022-10-05T17:28:15.183Z,11.90
2022-10-05T17:31:14.191Z,11.85
2022-10-05T17:34:30.688Z,11.78
2022-10-05T17:37:32.039Z,11.71
2022-10-05T17:40:01.875Z,11.64
2022-10-05T17:42:30.005Z,11.60
2022-10-05T17:45:14.579Z,11.56
2022-10-05T17:48:03.829Z,11.51
2022-10-05T17:51:04.367Z,11.46
2022-10-05T17:54:06.417Z,11.42
2022-10-05T17:57:04.602Z,11.35
2022-10-05T18:00:01.744Z,11.29
2022-10-05T18:02:36.654Z,11.23
2022-10-05T18:05:16.218Z,11.16
2022-10-05T18:07:48.221Z,11.10
2022-10-05T18:10:29.037Z,11.05
2022-10-05T18:13:00.064Z,11.01
2022-10-05T18:15:28.360Z,10.97
2022-10-05T18:18:19.602Z,10.94
2022-10-05T18:21:11.721Z,10.87
2022-10-05T18:23:58.532Z,10.83
2022-10-05T18:26:46.737Z,10.80
2022-10-05T18:30:03.344Z,10.76
2022-10-05T18:33:28.216Z,10.70
2022-10-05T18:36:14.236Z,10.64
2022-10-05T18:39:09.806Z,10.60
2022-10-05T18:41:49.485Z,10.55
2022-10-05T18:44:44.332Z,10.53
2022-10-05T18:47:48.210Z,10.49
2022-10-05T18:50:26.155Z,10.43
2022-10-05T18:52:57.040Z,10.36
2022-10-05T18:55:41.198Z,10.32
2022-10-05T18:58:14.322Z,10.31
2022-10-05T19:00:45.017Z,10.40
2022-10-05T19:03:51.269Z,10.44
2022-10-05T19:06:27.046Z,10.50
2022-10-05T19:09:27.415Z,10.53
2022-10-05T19:12:20.812Z,10.54
2022-10-05T19:15:29.688Z,10.55
2022-10-05T19:18:09.044Z,10.58
2022-10-05T19:20:54.117Z,10.59
2022-10-05T19:24:02.466Z,10.61
2022-10-05T19:26:51.761Z,10.61
2022-10-05T19:29:47.392Z,10.61
2022-10-05T19:33:06.901Z,10.62
2022-10-05T19:36:08.558Z,10.63
2022-10-05T19:38:59.602Z,10.61
2022-10-05T19:41:55.856Z,10.61
2022-10-05T19:45:11.900Z,10.61
2022-10-05T19:48:02.453Z,10.60
2022-10-05T19:50:34.532Z,10.57
2022-10-05T19:53:12.775Z,10.53
2022-10-05T19:55:43.845Z,10.53
2022-10-05T19:58:25.356Z,10.53
2022-10-05T20:01:06.856Z,10.49
2022-10-05T20:03:38.078Z,10.46
2022-10-05T20:06:09.108Z,10.42
2022-10-05T20:08:50.022Z,10.41
2022-10-05T20:11:23.433Z,10.39
2022-10-05T20:13:55.134Z,10.40
2022-10-05T20:19:51.078Z,10.35
2022-10-05T20:22:33.196Z,10.32
2022-10-05T20:25:28.906Z,10.27
2022-10-05T20:27:57.947Z,10.24
2022-10-05T20:30:29.158Z,10.22
2022-10-05T20:33:04.651Z,10.21
2022-10-05T20:35:32.878Z,10.21
2022-10-05T20:38:01.173Z,10.18
2022-10-05T20:40:30.629Z,10.17
2022-10-05T20:42:59.030Z,10.14
2022-10-05T20:45:27.185Z,10.09
2022-10-05T20:47:55.396Z,10.05
2022-10-05T20:50:23.483Z,10.01
2022-10-05T20:52:51.570Z,10.00
2022-10-05T20:55:20.862Z,9.98
2022-10-05T20:57:48.980Z,9.98
2022-10-05T21:00:17.222Z,9.94
2022-10-05T21:02:46.900Z,9.92
2022-10-05T21:05:18.343Z,9.93
2022-10-05T21:07:46.839Z,9.92
2022-10-05T21:10:15.067Z,9.91
2022-10-05T21:12:43.802Z,9.88
2022-10-05T21:15:12.685Z,9.87
2022-10-05T21:17:40.820Z,9.87
2022-10-05T21:20:11.193Z,9.85
2022-10-05T21:22:39.289Z,9.81
2022-10-05T21:25:09.121Z,9.75
2022-10-05T21:27:37.296Z,9.67
2022-10-05T21:30:06.225Z,9.59
2022-10-05T21:32:34.489Z,9.53
2022-10-05T21:35:02.707Z,9.49
2022-10-05T21:37:30.815Z,9.41
2022-10-05T21:39:58.949Z,9.36
2022-10-05T21:42:27.146Z,9.34
2022-10-05T21:44:55.236Z,9.31
2022-10-05T21:47:23.409Z,9.28
2022-10-05T21:49:53.095Z,9.22
2022-10-05T21:52:21.916Z,9.17
2022-10-05T21:54:50.056Z,9.11
2022-10-05T21:57:18.722Z,9.06
2022-10-05T21:59:47.509Z,9.00
2022-10-05T22:02:15.623Z,8.96
2022-10-05T22:04:43.727Z,8.92
2022-10-05T22:07:20.640Z,8.90
2022-10-05T22:09:50.684Z,8.84
2022-10-05T22:12:20.085Z,8.79
2022-10-05T22:14:48.848Z,8.78
2022-10-05T22:17:24.901Z,8.76
2022-10-05T22:19:55.668Z,8.74
2022-10-05T22:22:25.505Z,8.74
2022-10-05T22:24:54.275Z,8.73
2022-10-05T22:27:24.771Z,8.73
2022-10-05T22:29:54.418Z,8.72
2022-10-05T22:32:22.507Z,8.70
2022-10-05T22:34:51.106Z,8.69
2022-10-05T22:37:19.205Z,8.66
2022-10-05T22:39:48.384Z,8.64
2022-10-05T22:42:16.615Z,8.63
2022-10-05T22:44:44.757Z,8.63
2022-10-05T22:47:13.385Z,8.61
2022-10-05T22:49:41.457Z,8.58
2022-10-05T22:52:09.576Z,8.57
2022-10-05T22:54:37.665Z,8.56
2022-10-05T22:57:05.820Z,8.54
2022-10-05T22:59:33.969Z,8.51
2022-10-05T23:02:02.132Z,8.45
2022-10-05T23:04:30.973Z,8.42
2022-10-05T23:06:59.132Z,8.40
2022-10-05T23:09:27.279Z,8.37
2022-10-05T23:11:55.473Z,8.34
2022-10-05T23:14:24.034Z,8.32
2022-10-05T23:16:52.161Z,8.32
2022-10-05T23:19:20.857Z,8.31
2022-10-05T23:21:49.389Z,8.28
2022-10-05T23:24:17.474Z,8.26
2022-10-05T23:26:45.589Z,8.22
2022-10-05T23:29:13.777Z,8.19
2022-10-05T23:31:41.893Z,8.16
2022-10-05T23:34:09.997Z,8.13
2022-10-05T23:36:38.127Z,8.10
2022-10-05T23:39:06.275Z,8.08
2022-10-05T23:41:34.556Z,8.06
2022-10-05T23:44:02.693Z,8.04
2022-10-05T23:46:30.837Z,8.02
2022-10-05T23:48:58.924Z,8.01
2022-10-05T23:51:27.121Z,8.00
2022-10-05T23:53:55.266Z,7.99
2022-10-05T23:56:23.400Z,7.97
2022-10-05T23:58:51.539Z,7.96
